createdAt,value
2023-04-27T00:00:11.265Z,3.78
2023-04-27T00:02:40.631Z,3.88
2023-04-27T00:05:07.588Z,3.60
2023-04-27T00:07:34.119Z,3.80
2023-04-27T00:10:00.552Z,3.70
2023-04-27T00:12:26.969Z,3.72
2023-04-27T00:14:53.424Z,3.78
2023-04-27T00:17:19.871Z,4.18
2023-04-27T00:19:47.439Z,4.05
2023-04-27T00:22:14.052Z,4.47
2023-04-27T00:24:41.680Z,4.05
2023-04-27T00:27:08.099Z,4.40
2023-04-27T00:29:34.561Z,4.28
2023-04-27T00:32:01.033Z,4.22
2023-04-27T00:34:27.438Z,4.47
2023-04-27T00:36:53.957Z,4.25
2023-04-27T00:39:20.475Z,4.50
2023-04-27T00:41:46.883Z,4.70
2023-04-27T00:44:13.368Z,4.53
2023-04-27T00:46:39.919Z,5.10
2023-04-27T00:49:06.393Z,5.00
2023-04-27T00:51:33.000Z,4.97
2023-04-27T00:54:00.834Z,5.00
2023-04-27T00:56:27.248Z,4.88
2023-04-27T00:58:53.924Z,4.85
2023-04-27T01:01:20.647Z,5.05
2023-04-27T01:03:47.913Z,4.43
2023-04-27T01:06:14.610Z,4.93
2023-04-27T01:08:41.254Z,4.80
2023-04-27T01:11:07.899Z,4.35
2023-04-27T01:13:34.312Z,4.57
2023-04-27T01:16:00.859Z,4.28
2023-04-27T01:18:27.301Z,4.53
2023-04-27T01:20:53.817Z,4.93
2023-04-27T01:23:20.247Z,4.80
2023-04-27T01:25:46.670Z,4.70
2023-04-27T01:28:13.268Z,4.60
2023-04-27T01:30:39.664Z,4.20
2023-04-27T01:33:06.312Z,5.03
2023-04-27T01:35:32.811Z,4.28
2023-04-27T01:37:59.356Z,4.15
2023-04-27T01:40:25.900Z,4.68
2023-04-27T01:42:52.347Z,4.25
2023-04-27T01:45:18.739Z,4.25
2023-04-27T01:47:45.164Z,4.60
2023-04-27T01:50:11.749Z,4.07
2023-04-27T01:52:38.188Z,4.32
2023-04-27T01:55:05.024Z,4.15
2023-04-27T01:57:31.588Z,3.80
2023-04-27T01:59:57.994Z,3.92
2023-04-27T02:02:24.585Z,4.15
2023-04-27T02:04:51.346Z,3.78
2023-04-27T02:07:17.898Z,3.72
2023-04-27T02:09:44.354Z,3.17
2023-04-27T02:12:11.746Z,3.53
2023-04-27T02:14:38.166Z,3.75
2023-04-27T02:17:04.544Z,3.38
2023-04-27T02:19:31.097Z,3.67
2023-04-27T02:21:57.563Z,3.50
2023-04-27T02:24:24.059Z,3.45
2023-04-27T02:26:50.575Z,3.30
2023-04-27T02:29:17.429Z,4.05
2023-04-27T02:31:44.463Z,2.92
2023-04-27T02:34:11.021Z,3.47
2023-04-27T02:36:37.469Z,3.25
2023-04-27T02:39:04.109Z,3.80
2023-04-27T02:41:33.583Z,3.30
2023-04-27T02:44:00.038Z,3.30
2023-04-27T02:46:27.223Z,3.55
2023-04-27T02:48:53.809Z,3.40
2023-04-27T02:51:20.195Z,3.70
2023-04-27T02:53:46.610Z,3.58
2023-04-27T02:56:13.099Z,3.80
2023-04-27T02:58:39.495Z,3.35
2023-04-27T03:01:05.986Z,3.30
2023-04-27T03:03:32.654Z,3.17
2023-04-27T03:05:59.242Z,3.13
2023-04-27T03:08:26.175Z,3.65
2023-04-27T03:10:52.602Z,3.70
2023-04-27T03:13:19.047Z,3.63
2023-04-27T03:15:45.668Z,3.53
2023-04-27T03:18:12.088Z,3.38
2023-04-27T03:20:38.611Z,3.63
2023-04-27T03:23:05.102Z,3.47
2023-04-27T03:25:31.571Z,3.88
2023-04-27T03:27:57.948Z,3.67
2023-04-27T03:30:24.377Z,3.70
2023-04-27T03:32:50.850Z,3.72
2023-04-27T03:35:17.556Z,3.40
2023-04-27T03:37:45.908Z,3.75
2023-04-27T03:40:12.959Z,3.67
2023-04-27T03:42:39.337Z,3.30
2023-04-27T03:45:07.103Z,3.58
2023-04-27T03:47:33.658Z,4.38
2023-04-27T03:50:00.060Z,3.75
2023-04-27T03:52:26.480Z,4.15
2023-04-27T03:54:52.898Z,4.07
2023-04-27T03:57:19.282Z,3.60
2023-04-27T03:59:45.714Z,4.30
2023-04-27T04:02:12.178Z,3.47
2023-04-27T04:04:38.945Z,3.83
2023-04-27T04:07:05.829Z,3.80
2023-04-27T04:09:32.275Z,3.58
2023-04-27T04:11:58.641Z,3.70
2023-04-27T04:14:25.206Z,3.42
2023-04-27T04:16:51.636Z,3.80
2023-04-27T04:19:18.747Z,3.63
2023-04-27T04:21:46.532Z,3.60
2023-04-27T04:24:13.513Z,3.90
2023-04-27T04:26:39.956Z,3.58
2023-04-27T04:29:07.563Z,4.30
2023-04-27T04:31:35.354Z,3.50
2023-04-27T04:34:02.299Z,3.65
2023-04-27T04:36:28.725Z,3.72
2023-04-27T04:38:57.067Z,3.63
2023-04-27T04:41:23.914Z,3.80
2023-04-27T04:43:50.734Z,4.30
2023-04-27T04:46:17.267Z,4.13
2023-04-27T04:48:43.779Z,4.18
2023-04-27T04:51:10.258Z,5.32
2023-04-27T04:53:37.143Z,7.60
2023-04-27T04:56:10.916Z,9.30
2023-04-27T04:58:37.391Z,7.25
2023-04-27T05:01:03.850Z,4.97
2023-04-27T05:03:30.560Z,4.50
2023-04-27T05:05:57.324Z,4.45
2023-04-27T05:08:23.924Z,3.65
2023-04-27T05:10:51.200Z,4.15
2023-04-27T05:13:17.896Z,4.10
2023-04-27T05:15:44.375Z,3.85
2023-04-27T05:18:11.009Z,3.63
2023-04-27T05:20:38.264Z,3.88
2023-04-27T05:23:05.070Z,3.85
2023-04-27T05:25:32.387Z,4.43
2023-04-27T05:27:59.093Z,4.15
2023-04-27T05:30:25.643Z,3.78
2023-04-27T05:32:52.096Z,3.97
2023-04-27T05:35:18.624Z,3.75
2023-04-27T05:37:47.858Z,3.83
2023-04-27T05:40:15.184Z,3.80
2023-04-27T05:42:41.596Z,4.35
2023-04-27T05:45:08.492Z,4.00
2023-04-27T05:47:34.979Z,4.20
2023-04-27T05:50:01.560Z,4.43
2023-04-27T05:52:30.898Z,4.63
2023-04-27T05:54:58.863Z,4.13
2023-04-27T05:57:25.735Z,4.13
2023-04-27T05:59:52.867Z,3.78
2023-04-27T06:02:19.812Z,3.63
2023-04-27T06:04:46.649Z,3.30
2023-04-27T06:07:16.345Z,4.25
2023-04-27T06:09:42.906Z,3.08
2023-04-27T06:12:09.563Z,3.65
2023-04-27T06:14:36.867Z,3.72
2023-04-27T06:17:04.052Z,3.53
2023-04-27T06:19:30.464Z,3.70
2023-04-27T06:21:57.087Z,3.72
2023-04-27T06:24:23.534Z,3.72
2023-04-27T06:26:50.107Z,3.42
2023-04-27T06:29:16.616Z,3.53
2023-04-27T06:31:43.095Z,3.97
2023-04-27T06:34:09.683Z,3.83
2023-04-27T06:36:37.249Z,3.53
2023-04-27T06:39:03.642Z,3.33
2023-04-27T06:41:30.104Z,3.67
2023-04-27T06:43:58.580Z,3.70
2023-04-27T06:46:26.074Z,4.13
2023-04-27T06:48:52.740Z,3.95
2023-04-27T06:51:19.224Z,3.58
2023-04-27T06:53:45.648Z,4.00
2023-04-27T06:56:12.472Z,4.35
2023-04-27T06:58:38.874Z,3.50
2023-04-27T07:01:05.557Z,4.00
2023-04-27T07:03:35.928Z,3.92
2023-04-27T07:06:02.472Z,3.60
2023-04-27T07:08:28.991Z,4.13
2023-04-27T07:10:56.214Z,4.10
2023-04-27T07:13:22.680Z,4.20
2023-04-27T07:15:54.647Z,3.63
2023-04-27T07:18:21.119Z,3.75
2023-04-27T07:20:47.508Z,4.50
2023-04-27T07:23:13.886Z,3.70
2023-04-27T07:25:40.393Z,3.90
2023-04-27T07:28:06.781Z,4.00
2023-04-27T07:30:36.400Z,4.03
2023-04-27T07:33:03.349Z,3.90
2023-04-27T07:35:29.921Z,4.28
2023-04-27T07:37:56.685Z,4.40
2023-04-27T07:40:24.128Z,4.22
2023-04-27T07:42:51.080Z,4.10
2023-04-27T07:45:20.533Z,4.10
2023-04-27T07:47:47.559Z,4.32
2023-04-27T07:50:18.023Z,4.47
2023-04-27T07:52:44.466Z,4.20
2023-04-27T07:55:11.006Z,3.92
2023-04-27T07:57:37.410Z,4.45
2023-04-27T08:00:08.712Z,4.25
2023-04-27T08:02:35.318Z,4.40
2023-04-27T08:05:03.077Z,4.18
2023-04-27T08:07:30.223Z,4.20
2023-04-27T08:09:57.380Z,5.07
2023-04-27T08:12:23.760Z,4.00
2023-04-27T08:14:50.184Z,4.15
2023-04-27T08:17:18.347Z,4.20
2023-04-27T08:19:44.861Z,4.15
2023-04-27T08:22:11.365Z,4.20
2023-04-27T08:24:37.861Z,4.63
2023-04-27T08:27:06.254Z,4.22
2023-04-27T08:29:33.049Z,4.00
2023-04-27T08:32:01.866Z,4.15
2023-04-27T08:34:28.878Z,4.28
2023-04-27T08:36:55.461Z,4.30
2023-04-27T08:39:22.068Z,4.10
2023-04-27T08:41:48.513Z,4.47
2023-04-27T08:44:15.020Z,4.25
2023-04-27T08:46:41.864Z,4.15
2023-04-27T08:49:08.447Z,3.92
2023-04-27T08:51:35.183Z,4.18
2023-04-27T08:54:01.981Z,3.92
2023-04-27T08:56:29.729Z,3.72
2023-04-27T08:58:57.630Z,3.85
2023-04-27T09:01:25.315Z,3.65
2023-04-27T09:04:00.307Z,3.92
2023-04-27T09:06:34.501Z,3.97
2023-04-27T09:09:02.123Z,3.90
2023-04-27T09:11:35.886Z,3.95
2023-04-27T09:14:19.633Z,4.10
2023-04-27T09:16:46.422Z,4.20
2023-04-27T09:19:24.807Z,3.40
2023-04-27T09:21:51.904Z,3.80
2023-04-27T09:24:18.276Z,4.05
2023-04-27T09:26:49.647Z,3.63
2023-04-27T09:29:16.266Z,4.18
2023-04-27T09:31:42.918Z,4.00
2023-04-27T09:34:09.371Z,3.50
2023-04-27T09:36:36.042Z,3.30
2023-04-27T09:39:04.583Z,3.63
2023-04-27T09:41:32.571Z,4.07
2023-04-27T09:43:59.222Z,3.95
2023-04-27T09:46:26.454Z,3.83
2023-04-27T09:48:53.346Z,3.78
2023-04-27T09:51:19.809Z,4.22
2023-04-27T09:53:49.079Z,3.30
2023-04-27T09:56:37.307Z,3.90
2023-04-27T09:59:09.836Z,3.30
2023-04-27T10:01:41.877Z,3.90
2023-04-27T10:04:11.686Z,4.05
2023-04-27T10:09:23.614Z,3.75
2023-04-27T10:11:51.338Z,4.10
2023-04-27T10:14:20.042Z,3.50
2023-04-27T10:16:51.313Z,3.70
2023-04-27T10:19:17.950Z,3.58
2023-04-27T10:21:56.940Z,3.28
2023-04-27T10:24:39.427Z,3.88
2023-04-27T10:27:07.832Z,3.78
2023-04-27T10:29:39.278Z,3.80
2023-04-27T10:32:13.571Z,3.80
2023-04-27T10:34:40.585Z,3.78
2023-04-27T10:37:12.368Z,4.00
2023-04-27T10:39:48.455Z,3.97
2023-04-27T10:42:26.174Z,3.22
2023-04-27T10:44:56.184Z,3.22
2023-04-27T10:47:23.964Z,3.25
2023-04-27T10:49:54.449Z,3.25
2023-04-27T10:52:21.051Z,3.38
2023-04-27T10:54:47.550Z,4.03
2023-04-27T10:57:14.052Z,3.60
2023-04-27T10:59:51.939Z,3.15
2023-04-27T11:02:26.674Z,3.15
2023-04-27T11:04:53.339Z,3.20
2023-04-27T11:07:25.420Z,3.33
2023-04-27T11:09:52.098Z,3.20
2023-04-27T11:12:18.853Z,3.22
2023-04-27T11:14:45.297Z,3.20
2023-04-27T11:17:13.221Z,3.03
2023-04-27T11:19:48.760Z,2.85
2023-04-27T11:22:16.839Z,2.90
2023-04-27T11:24:48.202Z,2.67
2023-04-27T11:27:14.632Z,3.15
2023-04-27T11:29:41.599Z,2.50
2023-04-27T11:32:08.069Z,2.38
2023-04-27T11:34:38.705Z,2.55
2023-04-27T11:37:17.899Z,2.40
2023-04-27T11:39:45.813Z,2.60
2023-04-27T11:42:18.615Z,2.30
2023-04-27T11:45:01.755Z,2.88
2023-04-27T11:47:30.002Z,2.28
2023-04-27T11:49:59.495Z,2.88
2023-04-27T11:52:32.406Z,2.75
2023-04-27T11:55:00.247Z,2.25
2023-04-27T11:57:28.635Z,2.53
2023-04-27T12:00:02.464Z,2.78
2023-04-27T12:02:31.162Z,3.10
2023-04-27T12:04:59.285Z,2.65
2023-04-27T12:07:25.934Z,2.58
2023-04-27T12:09:52.330Z,2.58
2023-04-27T12:12:19.136Z,2.80
2023-04-27T12:14:45.958Z,2.85
2023-04-27T12:17:14.414Z,2.63
2023-04-27T12:19:40.943Z,2.88
2023-04-27T12:22:08.370Z,3.13
2023-04-27T12:24:34.865Z,2.60
2023-04-27T12:27:01.416Z,3.20
2023-04-27T12:29:27.902Z,3.10
2023-04-27T12:31:54.577Z,2.88
2023-04-27T12:34:21.278Z,3.05
2023-04-27T12:36:48.008Z,2.75
2023-04-27T12:39:20.013Z,2.75
2023-04-27T12:41:48.163Z,2.70
2023-04-27T12:44:15.749Z,2.55
2023-04-27T12:46:43.538Z,2.80
2023-04-27T12:49:11.007Z,2.97
2023-04-27T12:51:37.535Z,3.03
2023-04-27T12:54:04.670Z,2.85
2023-04-27T12:56:31.372Z,2.80
2023-04-27T12:58:58.228Z,2.78
2023-04-27T13:01:27.419Z,2.80
2023-04-27T13:04:04.058Z,2.70
2023-04-27T13:06:31.795Z,2.53
2023-04-27T13:08:59.076Z,2.70
2023-04-27T13:11:26.192Z,2.58
2023-04-27T13:13:52.666Z,2.85
2023-04-27T13:16:24.877Z,2.80
2023-04-27T13:18:52.303Z,3.00
2023-04-27T13:21:19.231Z,2.25
2023-04-27T13:23:45.803Z,2.30
2023-04-27T13:26:12.815Z,2.13
2023-04-27T13:28:40.115Z,2.42
2023-04-27T13:31:06.606Z,2.10
2023-04-27T13:33:39.395Z,2.83
2023-04-27T13:36:06.248Z,4.70
2023-04-27T13:38:32.671Z,3.08
2023-04-27T13:40:59.168Z,2.50
2023-04-27T13:43:26.952Z,2.70
2023-04-27T13:45:55.179Z,2.70
2023-04-27T13:48:22.209Z,2.30
2023-04-27T13:50:48.617Z,2.55
2023-04-27T13:53:16.671Z,2.40
2023-04-27T13:55:43.832Z,2.10
2023-04-27T13:58:10.965Z,1.67
2023-04-27T14:00:37.854Z,2.47
2023-04-27T14:03:04.932Z,2.63
2023-04-27T14:05:32.007Z,1.73
2023-04-27T14:07:58.471Z,2.55
2023-04-27T14:10:24.893Z,2.00
2023-04-27T14:12:51.479Z,2.17
2023-04-27T14:15:17.941Z,1.88
2023-04-27T14:17:44.754Z,2.10
2023-04-27T14:20:11.538Z,2.40
2023-04-27T14:22:38.285Z,2.60
2023-04-27T14:25:05.079Z,2.20
2023-04-27T14:27:31.590Z,2.28
2023-04-27T14:29:58.016Z,1.98
2023-04-27T14:32:24.625Z,2.92
2023-04-27T14:34:51.442Z,2.05
2023-04-27T14:37:17.965Z,2.08
2023-04-27T14:39:45.428Z,2.03
2023-04-27T14:42:11.994Z,2.00
2023-04-27T14:44:38.487Z,2.30
2023-04-27T14:47:05.109Z,2.65
2023-04-27T14:49:32.059Z,2.25
2023-04-27T14:52:00.399Z,1.60
2023-04-27T14:54:27.641Z,2.20
2023-04-27T14:56:54.197Z,3.20
2023-04-27T14:59:22.157Z,2.03
2023-04-27T15:01:48.687Z,1.98
2023-04-27T15:04:15.364Z,1.90
2023-04-27T15:06:41.831Z,1.67
2023-04-27T15:09:08.272Z,1.98
2023-04-27T15:11:35.152Z,2.10
2023-04-27T15:14:01.594Z,1.70
2023-04-27T15:16:28.136Z,1.70
2023-04-27T15:18:54.654Z,1.80
2023-04-27T15:21:21.983Z,1.58
2023-04-27T15:23:48.745Z,1.60
2023-04-27T15:26:15.260Z,1.60
2023-04-27T15:28:41.730Z,1.27
2023-04-27T15:31:08.511Z,1.30
2023-04-27T15:33:35.141Z,1.23
2023-04-27T15:36:01.999Z,1.55
2023-04-27T15:38:28.451Z,1.55
2023-04-27T15:40:54.902Z,1.50
2023-04-27T15:43:21.787Z,1.50
2023-04-27T15:45:48.699Z,1.60
2023-04-27T15:48:16.037Z,1.45
2023-04-27T15:50:44.496Z,1.40
2023-04-27T15:53:11.015Z,4.07
2023-04-27T15:55:37.573Z,2.90
2023-04-27T15:58:04.112Z,1.75
2023-04-27T16:00:30.707Z,1.70
2023-04-27T16:02:57.263Z,1.60
2023-04-27T16:05:23.844Z,2.20
2023-04-27T16:07:50.465Z,2.08
2023-04-27T16:10:16.850Z,1.70
2023-04-27T16:12:43.298Z,1.70
2023-04-27T16:15:11.463Z,1.55
2023-04-27T16:17:38.693Z,1.48
2023-04-27T16:20:09.341Z,1.45
2023-04-27T16:22:36.799Z,1.50
2023-04-27T16:25:04.350Z,1.75
2023-04-27T16:27:30.950Z,1.77
2023-04-27T16:29:57.400Z,1.70
2023-04-27T16:32:24.013Z,1.80
2023-04-27T16:34:50.662Z,1.83
2023-04-27T16:37:17.171Z,1.63
2023-04-27T16:39:43.586Z,1.70
2023-04-27T16:42:10.162Z,1.58
2023-04-27T16:44:37.923Z,1.65
2023-04-27T16:47:04.371Z,1.45
2023-04-27T16:49:30.907Z,1.38
2023-04-27T16:51:57.340Z,1.52
2023-04-27T16:54:23.759Z,1.60
2023-04-27T16:56:50.296Z,1.50
2023-04-27T16:59:17.110Z,1.30
2023-04-27T17:01:43.775Z,1.50
2023-04-27T17:04:10.750Z,1.90
2023-04-27T17:06:37.250Z,3.42
2023-04-27T17:09:04.359Z,4.20
2023-04-27T17:11:30.846Z,2.67
2023-04-27T17:13:57.532Z,1.90
2023-04-27T17:16:24.041Z,1.73
2023-04-27T17:18:50.585Z,2.20
2023-04-27T17:21:17.317Z,1.90
2023-04-27T17:23:46.493Z,2.15
2023-04-27T17:26:15.764Z,1.98
2023-04-27T17:28:42.196Z,2.40
2023-04-27T17:31:08.655Z,1.60
2023-04-27T17:33:35.334Z,1.92
2023-04-27T17:36:01.820Z,2.45
2023-04-27T17:38:28.267Z,2.58
2023-04-27T17:40:54.702Z,2.55
2023-04-27T17:43:21.152Z,2.10
2023-04-27T17:45:47.543Z,2.30
2023-04-27T17:48:13.999Z,2.05
2023-04-27T17:50:41.087Z,2.03
2023-04-27T17:53:07.537Z,1.90
2023-04-27T17:55:33.988Z,1.60
2023-04-27T17:58:00.452Z,1.70
2023-04-27T18:00:27.116Z,1.85
2023-04-27T18:02:53.787Z,2.25
2023-04-27T18:05:20.385Z,2.20
2023-04-27T18:07:46.871Z,2.10
2023-04-27T18:10:13.556Z,1.90
2023-04-27T18:12:40.040Z,1.63
2023-04-27T18:15:09.491Z,1.38
2023-04-27T18:17:36.481Z,1.98
2023-04-27T18:20:09.370Z,1.65
2023-04-27T18:22:37.788Z,1.90
2023-04-27T18:25:04.615Z,1.95
2023-04-27T18:27:32.735Z,1.90
2023-04-27T18:29:59.222Z,2.08
2023-04-27T18:32:25.837Z,1.67
2023-04-27T18:34:52.378Z,2.00
2023-04-27T18:37:18.783Z,2.53
2023-04-27T18:39:45.251Z,2.05
2023-04-27T18:42:11.983Z,2.50
2023-04-27T18:44:38.398Z,2.00
2023-04-27T18:47:04.947Z,2.22
2023-04-27T18:49:32.032Z,1.83
2023-04-27T18:51:58.755Z,1.95
2023-04-27T18:54:25.274Z,1.95
2023-04-27T18:56:53.548Z,2.10
2023-04-27T18:59:20.344Z,1.52
2023-04-27T19:01:46.925Z,1.90
2023-04-27T19:04:14.479Z,1.90
2023-04-27T19:06:41.099Z,1.95
2023-04-27T19:09:09.133Z,1.80
2023-04-27T19:11:35.976Z,1.95
2023-04-27T19:14:02.487Z,2.40
2023-04-27T19:16:29.007Z,2.00
2023-04-27T19:18:55.532Z,2.00
2023-04-27T19:21:21.951Z,3.00
2023-04-27T19:23:48.364Z,2.55
2023-04-27T19:26:14.835Z,3.17
2023-04-27T19:28:41.336Z,2.95
2023-04-27T19:31:07.885Z,2.72
2023-04-27T19:33:34.567Z,3.05
2023-04-27T19:36:00.978Z,3.00
2023-04-27T19:38:27.516Z,3.25
2023-04-27T19:40:54.062Z,2.90
2023-04-27T19:43:20.832Z,2.90
2023-04-27T19:45:49.120Z,2.60
2023-04-27T19:48:16.119Z,2.60
2023-04-27T19:50:43.481Z,2.60
2023-04-27T19:53:10.662Z,2.47
2023-04-27T19:55:37.225Z,2.25
2023-04-27T19:58:03.643Z,3.38
2023-04-27T20:00:30.882Z,3.13
2023-04-27T20:02:57.374Z,2.50
2023-04-27T20:05:24.409Z,4.05
2023-04-27T20:07:51.055Z,3.05
2023-04-27T20:10:17.619Z,2.45
2023-04-27T20:12:54.634Z,2.40
2023-04-27T20:15:23.170Z,2.70
2023-04-27T20:17:49.579Z,2.33
2023-04-27T20:20:16.162Z,2.65
2023-04-27T20:22:42.795Z,2.83
2023-04-27T20:25:09.812Z,2.75
2023-04-27T20:27:36.341Z,2.55
2023-04-27T20:30:03.174Z,3.20
2023-04-27T20:32:29.630Z,3.58
2023-04-27T20:34:56.098Z,3.95
2023-04-27T20:37:24.719Z,4.35
2023-04-27T20:39:52.074Z,4.65
2023-04-27T20:42:18.693Z,4.32
2023-04-27T20:44:48.478Z,3.13
2023-04-27T20:47:15.061Z,3.05
2023-04-27T20:49:41.886Z,3.20
2023-04-27T20:52:08.349Z,2.80
2023-04-27T20:54:34.838Z,2.83
2023-04-27T20:57:02.089Z,3.00
2023-04-27T20:59:28.748Z,2.72
2023-04-27T21:01:55.204Z,2.80
2023-04-27T21:04:21.781Z,2.38
2023-04-27T21:06:48.227Z,2.70
2023-04-27T21:09:14.659Z,3.00
2023-04-27T21:11:41.077Z,2.75
2023-04-27T21:14:07.614Z,3.22
2023-04-27T21:16:34.350Z,3.28
2023-04-27T21:19:00.937Z,3.35
2023-04-27T21:21:27.420Z,3.15
2023-04-27T21:24:00.831Z,3.53
2023-04-27T21:26:34.061Z,5.28
2023-04-27T21:29:01.110Z,4.88
2023-04-27T21:31:27.611Z,4.65
2023-04-27T21:33:54.182Z,3.50
2023-04-27T21:36:20.911Z,3.53
2023-04-27T21:38:47.339Z,3.88
2023-04-27T21:41:13.924Z,4.03
2023-04-27T21:43:42.055Z,6.03
2023-04-27T21:46:09.226Z,4.00
2023-04-27T21:48:36.196Z,4.50
2023-04-27T21:51:02.609Z,3.60
2023-04-27T21:53:32.061Z,2.95
2023-04-27T21:55:58.669Z,2.67
2023-04-27T21:58:25.645Z,2.85
2023-04-27T22:00:52.211Z,3.22
2023-04-27T22:03:18.820Z,3.15
2023-04-27T22:05:48.717Z,3.00
2023-04-27T22:08:15.194Z,2.90
2023-04-27T22:10:41.706Z,3.17
2023-04-27T22:13:18.786Z,2.95
2023-04-27T22:15:46.495Z,3.17
2023-04-27T22:18:14.608Z,2.60
2023-04-27T22:20:41.568Z,2.90
2023-04-27T22:23:09.181Z,2.65
2023-04-27T22:25:35.767Z,2.60
2023-04-27T22:28:02.199Z,2.72
2023-04-27T22:30:29.107Z,2.83
2023-04-27T22:32:56.285Z,2.95
2023-04-27T22:35:27.193Z,3.10
2023-04-27T22:37:59.195Z,3.05
2023-04-27T22:40:26.101Z,2.97
2023-04-27T22:42:53.321Z,3.08
2023-04-27T22:45:19.814Z,3.13
2023-04-27T22:47:46.432Z,3.15
2023-04-27T22:50:13.441Z,3.20
2023-04-27T22:52:42.277Z,3.30
2023-04-27T22:55:09.433Z,3.00
2023-04-27T22:57:35.899Z,3.35
2023-04-27T23:00:05.061Z,3.80
2023-04-27T23:02:31.968Z,3.20
2023-04-27T23:04:58.812Z,3.58
2023-04-27T23:07:25.813Z,3.08
2023-04-27T23:09:52.687Z,3.30
2023-04-27T23:12:19.234Z,3.33
2023-04-27T23:14:45.655Z,3.35
2023-04-27T23:17:12.071Z,3.40
2023-04-27T23:19:40.541Z,3.28
2023-04-27T23:22:07.221Z,3.25
2023-04-27T23:24:33.618Z,3.47
2023-04-27T23:27:00.103Z,3.50
2023-04-27T23:29:26.576Z,4.05
2023-04-27T23:31:52.949Z,3.50
2023-04-27T23:34:19.359Z,3.75
2023-04-27T23:36:45.765Z,3.35
2023-04-27T23:39:12.226Z,3.80
2023-04-27T23:41:38.649Z,3.50
2023-04-27T23:44:05.147Z,3.60
2023-04-27T23:46:31.646Z,3.55
2023-04-27T23:48:58.121Z,3.53
2023-04-27T23:51:24.602Z,3.97
2023-04-27T23:53:51.044Z,3.85
2023-04-27T23:56:18.390Z,4.20
2023-04-27T23:58:47.976Z,3.58
